メインページ
METAR-TAF:

METAR-TAF

空港 :

ボストン, マサチューセッツ州, アメリカ合衆国

ジェネラル・エドワード・ローレンス・ローガン国際空港

緯度: 42-21-38N, 経度: 071-00-38W, 海抜: 6m

現時点の気象観測

当レポートは26分前の22:54(UTC)に作成
東/南東の風 12kt
気温 14°C
湿度 72%
気圧 1013 hPa
視程: 16.1km
高度5000ftの雲はほとんどない
高度7000ftの千切れ雲あり
高度13000ftの千切れ雲あり
高度25000ftの千切れ雲あり

METAR: KBOS 272254Z 11012KT 10SM FEW050 BKN070 BKN130 BKN250 14/09 A2990 RMK AO2 SLP124 T01390089

時間: 19:20 (23:20 UTC)

予報

当レポートは3時間13分前の20:07(UTC)に作成
予報は27日の 20時(UTC)から 28日の 24時(UTC)まで有効
東/南東の風 10kt
視程: 10km
高度4000ftの雲はほとんどない
28日の 0000時(UTC)から
南東の風 6kt
視程: 10km
高度5000ftの雲は散在している
28日の 0230時(UTC)から
の風 5kt
視程: 10km
高度5000ftの雲は散在している
28日の 0900時(UTC)から
南西の風 4kt
視程: 10km
高度2000ftの千切れ雲あり
28日の 1400時(UTC)から
の風 6kt
視程: 10km
高度3500ftの千切れ雲あり
28日の 1600時(UTC)から
南東の風 8kt
視程: 10km
高度5000ftの千切れ雲あり

TAF: KBOS 272007Z 2720/2824 11010KT P6SM FEW040 FM280000 13006KT P6SM SCT050 FM280230 19005KT P6SM SCT050 FM280900 22004KT P6SM BKN020 FM281400 18006KT P6SM BKN035 FM281600 13008KT P6SM BKN050

4,000以上の空港の気象観測と天気予報(METAR報とTAF報)

利用可能な観測所は地図上に黄色い丸と赤い丸で示す。

丸の上にカーソルを重ねると観測所名を参照できる。

次にクリックすると気象観測と天気予報を参照できる。

マップの切り替え:黒色「×」印の緑ボタンをクリックして拡大、「-」印の緑ボタンをクリックして縮小、緑色の三角印をクリックして隣りの地図に切り替え


METAR-TAF: